Penn, North Dakota
Current Conditions -  °F | °C
As of 7:35 PM on Thursday 27 Nov 2014 (Local Time) from KDVL Reporting Station
Overcast Overcast  
Wind Chill: -11°   Ceiling: 2100
Heat Index:   Visibility: 4mi
Dew Point: -4°   Wind: 15mph
Humidity: 61%   Direction: 130°SE
Pressure: 30.07"   Gusts: 18mph
Location:  48.22°N, 99.09°W
Report Text: KDVL 280135Z AUTO 13013G16KT 4SM BKN021 OVC025 M14/M20 A3007 RMK AO1
Loading
Personal Weather Stations






























Interactive Weather Map New forecast layout! Learn more

10-Day Weather Forecast

Advertisements
Track Severe Weather on mobile